sensor_id;sensor_type;location;lat;lon;timestamp;P1;durP1;ratioP1;P2;durP2;ratioP2
36185;SDS011;22228;53.222;7.446;2023-04-06T00:01:50;14.00;;;12.10;;
36185;SDS011;22228;53.222;7.446;2023-04-06T00:04:36;16.97;;;12.93;;
36185;SDS011;22228;53.222;7.446;2023-04-06T00:06:58;14.80;;;13.30;;
36185;SDS011;22228;53.222;7.446;2023-04-06T00:09:18;15.33;;;13.73;;
36185;SDS011;22228;53.222;7.446;2023-04-06T00:11:39;15.57;;;13.40;;
36185;SDS011;22228;53.222;7.446;2023-04-06T00:14:04;16.40;;;12.70;;
36185;SDS011;22228;53.222;7.446;2023-04-06T03:03:20;29.60;;;24.90;;
36185;SDS011;22228;53.222;7.446;2023-04-06T03:05:42;30.23;;;24.43;;
36185;SDS011;22228;53.222;7.446;2023-04-06T03:08:03;30.43;;;24.03;;
36185;SDS011;22228;53.222;7.446;2023-04-06T03:10:32;31.30;;;23.97;;
36185;SDS011;22228;53.222;7.446;2023-04-06T03:12:54;33.37;;;24.23;;
36185;SDS011;22228;53.222;7.446;2023-04-06T03:15:24;31.33;;;24.30;;
36185;SDS011;22228;53.222;7.446;2023-04-06T03:17:56;31.13;;;24.50;;
36185;SDS011;22228;53.222;7.446;2023-04-06T03:20:33;31.33;;;24.73;;
36185;SDS011;22228;53.222;7.446;2023-04-06T03:22:55;31.83;;;24.80;;
36185;SDS011;22228;53.222;7.446;2023-04-06T03:28:10;30.03;;;24.67;;
36185;SDS011;22228;53.222;7.446;2023-04-06T03:30:40;33.53;;;23.80;;
36185;SDS011;22228;53.222;7.446;2023-04-06T03:33:03;29.73;;;24.63;;
36185;SDS011;22228;53.222;7.446;2023-04-06T03:35:29;36.43;;;24.83;;
36185;SDS011;22228;53.222;7.446;2023-04-06T03:37:53;32.93;;;25.23;;
36185;SDS011;22228;53.222;7.446;2023-04-06T03:43:30;37.57;;;27.50;;
36185;SDS011;22228;53.222;7.446;2023-04-06T03:45:53;36.80;;;27.43;;
36185;SDS011;22228;53.222;7.446;2023-04-06T03:51:02;32.60;;;26.87;;
36185;SDS011;22228;53.222;7.446;2023-04-06T03:53:50;34.63;;;27.47;;
36185;SDS011;22228;53.222;7.446;2023-04-06T03:56:11;35.43;;;27.33;;
36185;SDS011;22228;53.222;7.446;2023-04-06T03:58:33;34.43;;;27.00;;
36185;SDS011;22228;53.222;7.446;2023-04-06T04:00:53;31.87;;;25.70;;
36185;SDS011;22228;53.222;7.446;2023-04-06T04:03:18;35.40;;;26.50;;
36185;SDS011;22228;53.222;7.446;2023-04-06T04:05:47;34.73;;;26.67;;
36185;SDS011;22228;53.222;7.446;2023-04-06T04:08:08;32.63;;;25.87;;
36185;SDS011;22228;53.222;7.446;2023-04-06T04:10:30;34.10;;;26.67;;
36185;SDS011;22228;53.222;7.446;2023-04-06T04:15:46;31.63;;;25.33;;
36185;SDS011;22228;53.222;7.446;2023-04-06T04:18:09;34.60;;;26.30;;
36185;SDS011;22228;53.222;7.446;2023-04-06T04:20:53;32.80;;;25.57;;
36185;SDS011;22228;53.222;7.446;2023-04-06T04:23:16;32.70;;;26.63;;
36185;SDS011;22228;53.222;7.446;2023-04-06T04:25:38;32.50;;;25.93;;
36185;SDS011;22228;53.222;7.446;2023-04-06T04:30:48;31.00;;;25.30;;
36185;SDS011;22228;53.222;7.446;2023-04-06T04:33:15;32.70;;;25.90;;
36185;SDS011;22228;53.222;7.446;2023-04-06T04:35:44;31.37;;;25.37;;
36185;SDS011;22228;53.222;7.446;2023-04-06T04:38:08;33.63;;;25.17;;
36185;SDS011;22228;53.222;7.446;2023-04-06T04:40:34;32.17;;;26.60;;
36185;SDS011;22228;53.222;7.446;2023-04-06T04:43:05;34.47;;;27.30;;
36185;SDS011;22228;53.222;7.446;2023-04-06T04:45:33;41.20;;;27.40;;
36185;SDS011;22228;53.222;7.446;2023-04-06T04:48:07;37.17;;;27.70;;
36185;SDS011;22228;53.222;7.446;2023-04-06T04:50:53;34.37;;;27.77;;
36185;SDS011;22228;53.222;7.446;2023-04-06T04:53:40;36.03;;;28.63;;
36185;SDS011;22228;53.222;7.446;2023-04-06T04:56:14;35.60;;;28.67;;
36185;SDS011;22228;53.222;7.446;2023-04-06T04:58:38;41.37;;;28.53;;
36185;SDS011;22228;53.222;7.446;2023-04-06T05:01:32;34.63;;;28.20;;
36185;SDS011;22228;53.222;7.446;2023-04-06T05:03:56;38.70;;;27.33;;
36185;SDS011;22228;53.222;7.446;2023-04-06T05:06:24;34.40;;;26.97;;
36185;SDS011;22228;53.222;7.446;2023-04-06T05:08:52;34.30;;;26.50;;
36185;SDS011;22228;53.222;7.446;2023-04-06T05:11:38;35.90;;;27.47;;
36185;SDS011;22228;53.222;7.446;2023-04-06T05:14:00;32.70;;;25.30;;
36185;SDS011;22228;53.222;7.446;2023-04-06T05:16:21;33.47;;;26.20;;
36185;SDS011;22228;53.222;7.446;2023-04-06T05:18:43;30.87;;;25.30;;
36185;SDS011;22228;53.222;7.446;2023-04-06T05:21:04;31.83;;;25.23;;
36185;SDS011;22228;53.222;7.446;2023-04-06T05:23:35;37.07;;;26.37;;
36185;SDS011;22228;53.222;7.446;2023-04-06T05:25:56;32.03;;;25.50;;
36185;SDS011;22228;53.222;7.446;2023-04-06T05:28:18;33.80;;;24.70;;
36185;SDS011;22228;53.222;7.446;2023-04-06T05:30:41;32.60;;;25.03;;
36185;SDS011;22228;53.222;7.446;2023-04-06T05:33:09;32.40;;;24.40;;
36185;SDS011;22228;53.222;7.446;2023-04-06T05:35:59;33.17;;;23.70;;
36185;SDS011;22228;53.222;7.446;2023-04-06T05:38:31;32.40;;;24.07;;
36185;SDS011;22228;53.222;7.446;2023-04-06T05:41:01;30.07;;;23.30;;
36185;SDS011;22228;53.222;7.446;2023-04-06T05:43:32;31.67;;;24.57;;
36185;SDS011;22228;53.222;7.446;2023-04-06T05:45:56;30.43;;;24.07;;
36185;SDS011;22228;53.222;7.446;2023-04-06T05:48:19;29.20;;;23.57;;
36185;SDS011;22228;53.222;7.446;2023-04-06T05:50:40;29.20;;;23.27;;
36185;SDS011;22228;53.222;7.446;2023-04-06T05:53:06;28.43;;;22.63;;
36185;SDS011;22228;53.222;7.446;2023-04-06T05:55:33;29.47;;;22.57;;
36185;SDS011;22228;53.222;7.446;2023-04-06T05:58:03;26.03;;;21.17;;
36185;SDS011;22228;53.222;7.446;2023-04-06T06:00:48;26.80;;;22.30;;
36185;SDS011;22228;53.222;7.446;2023-04-06T06:03:13;28.03;;;21.70;;
36185;SDS011;22228;53.222;7.446;2023-04-06T06:05:46;25.40;;;21.13;;
36185;SDS011;22228;53.222;7.446;2023-04-06T06:11:07;27.83;;;21.27;;
36185;SDS011;22228;53.222;7.446;2023-04-06T06:13:28;25.03;;;20.50;;
36185;SDS011;22228;53.222;7.446;2023-04-06T06:16:14;28.47;;;20.93;;
36185;SDS011;22228;53.222;7.446;2023-04-06T06:18:42;23.73;;;21.13;;
36185;SDS011;22228;53.222;7.446;2023-04-06T06:21:03;26.77;;;21.43;;
36185;SDS011;22228;53.222;7.446;2023-04-06T06:23:34;22.00;;;19.33;;
36185;SDS011;22228;53.222;7.446;2023-04-06T06:25:56;24.57;;;20.30;;
36185;SDS011;22228;53.222;7.446;2023-04-06T06:28:19;23.20;;;19.60;;
36185;SDS011;22228;53.222;7.446;2023-04-06T06:31:05;22.00;;;19.47;;
36185;SDS011;22228;53.222;7.446;2023-04-06T06:33:29;21.77;;;19.43;;
36185;SDS011;22228;53.222;7.446;2023-04-06T06:35:52;22.90;;;18.97;;
36185;SDS011;22228;53.222;7.446;2023-04-06T06:38:19;22.20;;;17.67;;
36185;SDS011;22228;53.222;7.446;2023-04-06T06:43:31;20.37;;;17.43;;
36185;SDS011;22228;53.222;7.446;2023-04-06T06:46:01;19.93;;;17.23;;
36185;SDS011;22228;53.222;7.446;2023-04-06T06:51:18;21.10;;;17.90;;
36185;SDS011;22228;53.222;7.446;2023-04-06T06:53:39;20.63;;;17.67;;
36185;SDS011;22228;53.222;7.446;2023-04-06T06:56:00;19.83;;;17.03;;
36185;SDS011;22228;53.222;7.446;2023-04-06T06:58:22;22.97;;;17.33;;
36185;SDS011;22228;53.222;7.446;2023-04-06T07:00:45;19.43;;;16.70;;
36185;SDS011;22228;53.222;7.446;2023-04-06T07:03:12;20.27;;;17.17;;
36185;SDS011;22228;53.222;7.446;2023-04-06T07:05:34;18.87;;;16.57;;
36185;SDS011;22228;53.222;7.446;2023-04-06T07:07:57;18.50;;;16.50;;
36185;SDS011;22228;53.222;7.446;2023-04-06T07:10:42;18.73;;;15.57;;
36185;SDS011;22228;53.222;7.446;2023-04-06T07:13:28;21.93;;;15.67;;
36185;SDS011;22228;53.222;7.446;2023-04-06T07:15:51;17.27;;;14.83;;
36185;SDS011;22228;53.222;7.446;2023-04-06T07:18:37;16.87;;;15.07;;
36185;SDS011;22228;53.222;7.446;2023-04-06T07:20:59;15.90;;;14.30;;
36185;SDS011;22228;53.222;7.446;2023-04-06T07:23:27;16.27;;;14.17;;
36185;SDS011;22228;53.222;7.446;2023-04-06T07:25:47;18.10;;;14.00;;
36185;SDS011;22228;53.222;7.446;2023-04-06T07:31:00;17.10;;;13.63;;
36185;SDS011;22228;53.222;7.446;2023-04-06T07:33:27;16.30;;;13.47;;
36185;SDS011;22228;53.222;7.446;2023-04-06T07:35:50;15.07;;;13.53;;
36185;SDS011;22228;53.222;7.446;2023-04-06T07:38:11;14.87;;;13.27;;
36185;SDS011;22228;53.222;7.446;2023-04-06T07:40:34;14.53;;;13.13;;
36185;SDS011;22228;53.222;7.446;2023-04-06T07:43:27;14.33;;;12.93;;
36185;SDS011;22228;53.222;7.446;2023-04-06T07:45:49;15.37;;;12.33;;
36185;SDS011;22228;53.222;7.446;2023-04-06T07:48:10;14.60;;;12.50;;
36185;SDS011;22228;53.222;7.446;2023-04-06T07:50:32;13.20;;;11.80;;
36185;SDS011;22228;53.222;7.446;2023-04-06T07:53:25;13.03;;;11.63;;
36185;SDS011;22228;53.222;7.446;2023-04-06T07:55:51;12.77;;;11.47;;
36185;SDS011;22228;53.222;7.446;2023-04-06T07:58:15;12.33;;;11.00;;
36185;SDS011;22228;53.222;7.446;2023-04-06T08:00:36;12.10;;;10.90;;
36185;SDS011;22228;53.222;7.446;2023-04-06T08:02:58;11.83;;;10.73;;
36185;SDS011;22228;53.222;7.446;2023-04-06T08:05:20;11.10;;;10.00;;
36185;SDS011;22228;53.222;7.446;2023-04-06T08:07:47;10.40;;;9.40;;
36185;SDS011;22228;53.222;7.446;2023-04-06T08:10:08;10.47;;;9.47;;
36185;SDS011;22228;53.222;7.446;2023-04-06T08:12:37;10.50;;;8.70;;
36185;SDS011;22228;53.222;7.446;2023-04-06T08:14:57;9.27;;;8.57;;
36185;SDS011;22228;53.222;7.446;2023-04-06T08:17:47;10.40;;;8.07;;
36185;SDS011;22228;53.222;7.446;2023-04-06T08:20:09;8.90;;;8.20;;
36185;SDS011;22228;53.222;7.446;2023-04-06T08:22:34;9.73;;;8.67;;
36185;SDS011;22228;53.222;7.446;2023-04-06T08:24:55;8.30;;;7.50;;
36185;SDS011;22228;53.222;7.446;2023-04-06T08:27:16;9.13;;;7.67;;
36185;SDS011;22228;53.222;7.446;2023-04-06T08:29:45;8.63;;;7.73;;
36185;SDS011;22228;53.222;7.446;2023-04-06T08:32:07;9.23;;;6.97;;
36185;SDS011;22228;53.222;7.446;2023-04-06T08:34:27;8.97;;;8.03;;
36185;SDS011;22228;53.222;7.446;2023-04-06T08:39:35;8.10;;;7.37;;
36185;SDS011;22228;53.222;7.446;2023-04-06T08:42:10;8.30;;;7.43;;
36185;SDS011;22228;53.222;7.446;2023-04-06T08:44:33;8.20;;;7.40;;
36185;SDS011;22228;53.222;7.446;2023-04-06T08:46:55;8.67;;;6.83;;
36185;SDS011;22228;53.222;7.446;2023-04-06T08:52:10;9.27;;;7.10;;
36185;SDS011;22228;53.222;7.446;2023-04-06T08:54:31;8.97;;;7.30;;
36185;SDS011;22228;53.222;7.446;2023-04-06T08:56:52;8.77;;;6.67;;
36185;SDS011;22228;53.222;7.446;2023-04-06T08:59:18;7.93;;;6.80;;
36185;SDS011;22228;53.222;7.446;2023-04-06T09:01:40;7.47;;;6.87;;
36185;SDS011;22228;53.222;7.446;2023-04-06T09:04:03;9.23;;;6.77;;
36185;SDS011;22228;53.222;7.446;2023-04-06T09:06:29;7.67;;;6.30;;
36185;SDS011;22228;53.222;7.446;2023-04-06T09:11:42;7.40;;;6.73;;
36185;SDS011;22228;53.222;7.446;2023-04-06T09:17:05;8.83;;;6.47;;
36185;SDS011;22228;53.222;7.446;2023-04-06T09:19:27;7.70;;;6.10;;
36185;SDS011;22228;53.222;7.446;2023-04-06T09:24:42;7.37;;;6.67;;
36185;SDS011;22228;53.222;7.446;2023-04-06T09:27:04;7.20;;;6.50;;
36185;SDS011;22228;53.222;7.446;2023-04-06T09:29:27;8.83;;;7.73;;
36185;SDS011;22228;53.222;7.446;2023-04-06T09:31:47;8.03;;;7.27;;
36185;SDS011;22228;53.222;7.446;2023-04-06T09:34:20;8.40;;;7.57;;
36185;SDS011;22228;53.222;7.446;2023-04-06T09:36:48;9.50;;;7.03;;
36185;SDS011;22228;53.222;7.446;2023-04-06T09:39:10;7.63;;;6.70;;
36185;SDS011;22228;53.222;7.446;2023-04-06T09:41:35;8.83;;;7.97;;
36185;SDS011;22228;53.222;7.446;2023-04-06T09:44:03;10.53;;;8.10;;
36185;SDS011;22228;53.222;7.446;2023-04-06T09:46:25;9.30;;;7.67;;
36185;SDS011;22228;53.222;7.446;2023-04-06T09:48:46;8.47;;;7.67;;
36185;SDS011;22228;53.222;7.446;2023-04-06T09:51:37;9.10;;;7.73;;
36185;SDS011;22228;53.222;7.446;2023-04-06T09:54:02;8.27;;;7.50;;
36185;SDS011;22228;53.222;7.446;2023-04-06T09:59:21;8.07;;;7.43;;
36185;SDS011;22228;53.222;7.446;2023-04-06T10:01:51;7.60;;;6.80;;
36185;SDS011;22228;53.222;7.446;2023-04-06T10:04:18;7.43;;;6.73;;
36185;SDS011;22228;53.222;7.446;2023-04-06T10:07:09;7.90;;;7.20;;
36185;SDS011;22228;53.222;7.446;2023-04-06T10:09:33;8.47;;;7.67;;
36185;SDS011;22228;53.222;7.446;2023-04-06T10:11:58;9.17;;;7.37;;
36185;SDS011;22228;53.222;7.446;2023-04-06T10:14:22;8.10;;;7.30;;
36185;SDS011;22228;53.222;7.446;2023-04-06T10:16:43;10.10;;;8.17;;
36185;SDS011;22228;53.222;7.446;2023-04-06T10:19:06;8.97;;;8.20;;
36185;SDS011;22228;53.222;7.446;2023-04-06T10:21:33;8.40;;;7.70;;
36185;SDS011;22228;53.222;7.446;2023-04-06T10:23:58;9.93;;;7.70;;
36185;SDS011;22228;53.222;7.446;2023-04-06T10:26:22;8.20;;;7.50;;
36185;SDS011;22228;53.222;7.446;2023-04-06T10:28:43;9.10;;;7.83;;
36185;SDS011;22228;53.222;7.446;2023-04-06T10:33:55;11.67;;;7.67;;
36185;SDS011;22228;53.222;7.446;2023-04-06T10:36:40;9.77;;;8.77;;
36185;SDS011;22228;53.222;7.446;2023-04-06T10:39:02;8.93;;;8.03;;
36185;SDS011;22228;53.222;7.446;2023-04-06T10:41:56;9.27;;;8.37;;
36185;SDS011;22228;53.222;7.446;2023-04-06T10:44:27;9.33;;;8.40;;
36185;SDS011;22228;53.222;7.446;2023-04-06T10:46:54;12.27;;;9.30;;
36185;SDS011;22228;53.222;7.446;2023-04-06T10:49:17;9.27;;;8.43;;
36185;SDS011;22228;53.222;7.446;2023-04-06T10:51:39;8.97;;;8.23;;
36185;SDS011;22228;53.222;7.446;2023-04-06T10:54:25;9.97;;;8.63;;
36185;SDS011;22228;53.222;7.446;2023-04-06T10:56:47;10.67;;;9.67;;
36185;SDS011;22228;53.222;7.446;2023-04-06T10:59:34;10.23;;;9.33;;
36185;SDS011;22228;53.222;7.446;2023-04-06T11:02:01;13.20;;;9.80;;
36185;SDS011;22228;53.222;7.446;2023-04-06T11:04:30;10.80;;;9.80;;
36185;SDS011;22228;53.222;7.446;2023-04-06T11:06:51;10.90;;;9.50;;
36185;SDS011;22228;53.222;7.446;2023-04-06T11:09:22;11.23;;;10.13;;
36185;SDS011;22228;53.222;7.446;2023-04-06T11:11:43;10.57;;;9.67;;
36185;SDS011;22228;53.222;7.446;2023-04-06T11:14:06;11.23;;;9.90;;
36185;SDS011;22228;53.222;7.446;2023-04-06T11:16:31;12.27;;;11.07;;
36185;SDS011;22228;53.222;7.446;2023-04-06T11:19:24;11.80;;;10.67;;
36185;SDS011;22228;53.222;7.446;2023-04-06T11:21:52;13.67;;;12.23;;
36185;SDS011;22228;53.222;7.446;2023-04-06T11:24:13;10.83;;;9.83;;
36185;SDS011;22228;53.222;7.446;2023-04-06T11:26:39;11.53;;;10.37;;
36185;SDS011;22228;53.222;7.446;2023-04-06T11:29:00;11.60;;;10.50;;
36185;SDS011;22228;53.222;7.446;2023-04-06T11:31:24;12.73;;;11.43;;
36185;SDS011;22228;53.222;7.446;2023-04-06T11:33:56;12.67;;;11.30;;
36185;SDS011;22228;53.222;7.446;2023-04-06T11:36:16;12.50;;;11.30;;
36185;SDS011;22228;53.222;7.446;2023-04-06T11:38:38;11.73;;;10.63;;
36185;SDS011;22228;53.222;7.446;2023-04-06T11:41:00;13.40;;;11.43;;
36185;SDS011;22228;53.222;7.446;2023-04-06T11:43:25;12.13;;;10.93;;
36185;SDS011;22228;53.222;7.446;2023-04-06T11:46:12;12.17;;;10.97;;
36185;SDS011;22228;53.222;7.446;2023-04-06T11:48:44;13.07;;;11.77;;
36185;SDS011;22228;53.222;7.446;2023-04-06T11:51:07;13.33;;;11.60;;
36185;SDS011;22228;53.222;7.446;2023-04-06T11:53:28;13.37;;;11.73;;
36185;SDS011;22228;53.222;7.446;2023-04-06T11:56:23;12.07;;;10.90;;
36185;SDS011;22228;53.222;7.446;2023-04-06T12:04:45;12.17;;;10.87;;
36185;SDS011;22228;53.222;7.446;2023-04-06T12:07:08;13.03;;;11.73;;
36185;SDS011;22228;53.222;7.446;2023-04-06T12:09:29;12.87;;;11.33;;
36185;SDS011;22228;53.222;7.446;2023-04-06T12:11:50;13.33;;;12.00;;
36185;SDS011;22228;53.222;7.446;2023-04-06T12:14:35;12.70;;;11.47;;
36185;SDS011;22228;53.222;7.446;2023-04-06T12:16:55;13.00;;;11.70;;
36185;SDS011;22228;53.222;7.446;2023-04-06T12:19:18;13.63;;;12.20;;
36185;SDS011;22228;53.222;7.446;2023-04-06T12:21:39;13.43;;;11.50;;
36185;SDS011;22228;53.222;7.446;2023-04-06T12:24:26;13.00;;;11.80;;
36185;SDS011;22228;53.222;7.446;2023-04-06T12:26:54;14.47;;;11.57;;
36185;SDS011;22228;53.222;7.446;2023-04-06T12:32:03;13.13;;;11.63;;
36185;SDS011;22228;53.222;7.446;2023-04-06T12:34:25;12.40;;;11.20;;
36185;SDS011;22228;53.222;7.446;2023-04-06T12:36:46;11.17;;;10.17;;
36185;SDS011;22228;53.222;7.446;2023-04-06T12:39:06;12.77;;;11.57;;
36185;SDS011;22228;53.222;7.446;2023-04-06T12:41:29;12.90;;;11.80;;
36185;SDS011;22228;53.222;7.446;2023-04-06T12:43:51;12.67;;;11.43;;
36185;SDS011;22228;53.222;7.446;2023-04-06T12:46:12;12.00;;;10.93;;
36185;SDS011;22228;53.222;7.446;2023-04-06T12:48:33;12.53;;;11.33;;
36185;SDS011;22228;53.222;7.446;2023-04-06T12:50:54;12.13;;;11.03;;
36185;SDS011;22228;53.222;7.446;2023-04-06T12:53:16;12.63;;;11.17;;
36185;SDS011;22228;53.222;7.446;2023-04-06T12:55:37;12.10;;;10.90;;
36185;SDS011;22228;53.222;7.446;2023-04-06T12:58:01;13.03;;;11.50;;
36185;SDS011;22228;53.222;7.446;2023-04-06T13:00:22;12.20;;;10.87;;
36185;SDS011;22228;53.222;7.446;2023-04-06T13:02:45;11.63;;;10.10;;
36185;SDS011;22228;53.222;7.446;2023-04-06T13:05:13;11.77;;;10.77;;
36185;SDS011;22228;53.222;7.446;2023-04-06T13:07:37;12.13;;;10.90;;
36185;SDS011;22228;53.222;7.446;2023-04-06T13:10:05;13.20;;;11.90;;
36185;SDS011;22228;53.222;7.446;2023-04-06T13:15:16;19.83;;;13.63;;
36185;SDS011;22228;53.222;7.446;2023-04-06T13:17:38;12.57;;;11.27;;
36185;SDS011;22228;53.222;7.446;2023-04-06T13:20:01;14.33;;;12.93;;
36185;SDS011;22228;53.222;7.446;2023-04-06T13:22:22;15.77;;;12.57;;
36185;SDS011;22228;53.222;7.446;2023-04-06T13:24:48;15.40;;;13.80;;
36185;SDS011;22228;53.222;7.446;2023-04-06T13:27:10;15.00;;;13.50;;
36185;SDS011;22228;53.222;7.446;2023-04-06T13:29:31;15.63;;;13.83;;
36185;SDS011;22228;53.222;7.446;2023-04-06T13:31:55;15.13;;;13.60;;
36185;SDS011;22228;53.222;7.446;2023-04-06T13:34:16;14.90;;;13.40;;
36185;SDS011;22228;53.222;7.446;2023-04-06T13:36:42;14.27;;;12.97;;
36185;SDS011;22228;53.222;7.446;2023-04-06T13:39:03;13.57;;;12.27;;
36185;SDS011;22228;53.222;7.446;2023-04-06T13:41:24;16.67;;;13.10;;
36185;SDS011;22228;53.222;7.446;2023-04-06T13:43:52;13.90;;;12.50;;
36185;SDS011;22228;53.222;7.446;2023-04-06T13:46:20;14.27;;;12.87;;
36185;SDS011;22228;53.222;7.446;2023-04-06T13:48:44;15.93;;;14.43;;
36185;SDS011;22228;53.222;7.446;2023-04-06T13:51:12;16.13;;;14.43;;
36185;SDS011;22228;53.222;7.446;2023-04-06T13:53:42;15.53;;;14.13;;
36185;SDS011;22228;53.222;7.446;2023-04-06T13:56:03;16.63;;;13.43;;
36185;SDS011;22228;53.222;7.446;2023-04-06T13:58:24;15.60;;;13.97;;
36185;SDS011;22228;53.222;7.446;2023-04-06T14:01:11;14.97;;;13.57;;
36185;SDS011;22228;53.222;7.446;2023-04-06T14:03:58;17.70;;;15.90;;
36185;SDS011;22228;53.222;7.446;2023-04-06T14:09:10;16.83;;;15.23;;
36185;SDS011;22228;53.222;7.446;2023-04-06T14:11:38;17.77;;;15.90;;
36185;SDS011;22228;53.222;7.446;2023-04-06T14:13:59;17.17;;;15.33;;
36185;SDS011;22228;53.222;7.446;2023-04-06T14:16:23;16.80;;;15.10;;
36185;SDS011;22228;53.222;7.446;2023-04-06T14:18:44;14.97;;;13.57;;
36185;SDS011;22228;53.222;7.446;2023-04-06T14:21:06;15.17;;;13.67;;
36185;SDS011;22228;53.222;7.446;2023-04-06T14:23:28;14.33;;;13.03;;
36185;SDS011;22228;53.222;7.446;2023-04-06T14:25:49;17.50;;;15.80;;
36185;SDS011;22228;53.222;7.446;2023-04-06T14:28:10;16.57;;;14.97;;
36185;SDS011;22228;53.222;7.446;2023-04-06T14:30:32;17.60;;;15.77;;
36185;SDS011;22228;53.222;7.446;2023-04-06T14:32:53;16.90;;;15.30;;
36185;SDS011;22228;53.222;7.446;2023-04-06T14:35:17;15.03;;;13.63;;
36185;SDS011;22228;53.222;7.446;2023-04-06T14:38:03;15.23;;;13.83;;
36185;SDS011;22228;53.222;7.446;2023-04-06T14:43:37;16.00;;;14.40;;
36185;SDS011;22228;53.222;7.446;2023-04-06T14:46:02;17.07;;;14.33;;
36185;SDS011;22228;53.222;7.446;2023-04-06T14:48:23;17.60;;;14.53;;
36185;SDS011;22228;53.222;7.446;2023-04-06T14:50:53;15.63;;;14.13;;
36185;SDS011;22228;53.222;7.446;2023-04-06T14:53:16;16.03;;;14.53;;
36185;SDS011;22228;53.222;7.446;2023-04-06T14:55:38;16.33;;;14.63;;
36185;SDS011;22228;53.222;7.446;2023-04-06T14:58:01;17.50;;;15.80;;
36185;SDS011;22228;53.222;7.446;2023-04-06T15:00:22;17.67;;;15.97;;
36185;SDS011;22228;53.222;7.446;2023-04-06T15:02:43;16.90;;;15.30;;
36185;SDS011;22228;53.222;7.446;2023-04-06T15:05:11;17.90;;;16.03;;
36185;SDS011;22228;53.222;7.446;2023-04-06T15:07:31;17.80;;;16.03;;
36185;SDS011;22228;53.222;7.446;2023-04-06T15:09:56;19.07;;;16.53;;
36185;SDS011;22228;53.222;7.446;2023-04-06T15:12:40;17.70;;;16.10;;
36185;SDS011;22228;53.222;7.446;2023-04-06T15:15:26;18.60;;;16.70;;
36185;SDS011;22228;53.222;7.446;2023-04-06T15:17:48;17.97;;;16.07;;
36185;SDS011;22228;53.222;7.446;2023-04-06T15:20:11;19.23;;;17.23;;
36185;SDS011;22228;53.222;7.446;2023-04-06T15:22:32;18.23;;;16.37;;
36185;SDS011;22228;53.222;7.446;2023-04-06T15:24:54;18.33;;;16.53;;
36185;SDS011;22228;53.222;7.446;2023-04-06T15:27:16;19.57;;;17.47;;
36185;SDS011;22228;53.222;7.446;2023-04-06T15:29:37;19.07;;;17.17;;
36185;SDS011;22228;53.222;7.446;2023-04-06T15:32:04;19.15;;;17.38;;
36185;SDS011;22228;53.222;7.446;2023-04-06T15:34:25;18.67;;;16.87;;
36185;SDS011;22228;53.222;7.446;2023-04-06T15:36:49;19.67;;;17.63;;
36185;SDS011;22228;53.222;7.446;2023-04-06T15:39:34;19.07;;;17.23;;
36185;SDS011;22228;53.222;7.446;2023-04-06T15:41:56;20.50;;;18.50;;
36185;SDS011;22228;53.222;7.446;2023-04-06T15:44:18;20.97;;;18.60;;
36185;SDS011;22228;53.222;7.446;2023-04-06T15:47:04;20.80;;;18.63;;
36185;SDS011;22228;53.222;7.446;2023-04-06T15:49:27;20.70;;;18.50;;
36185;SDS011;22228;53.222;7.446;2023-04-06T15:51:51;20.43;;;18.33;;
36185;SDS011;22228;53.222;7.446;2023-04-06T15:54:13;19.77;;;17.67;;
36185;SDS011;22228;53.222;7.446;2023-04-06T15:56:34;21.17;;;18.97;;
36185;SDS011;22228;53.222;7.446;2023-04-06T15:59:01;20.23;;;17.77;;
36185;SDS011;22228;53.222;7.446;2023-04-06T16:01:27;20.57;;;18.40;;
36185;SDS011;22228;53.222;7.446;2023-04-06T16:03:49;21.37;;;19.13;;
36185;SDS011;22228;53.222;7.446;2023-04-06T16:06:11;20.30;;;18.30;;
36185;SDS011;22228;53.222;7.446;2023-04-06T16:08:32;20.30;;;18.30;;
36185;SDS011;22228;53.222;7.446;2023-04-06T16:10:57;20.30;;;18.20;;
36185;SDS011;22228;53.222;7.446;2023-04-06T16:13:20;20.73;;;18.53;;
36185;SDS011;22228;53.222;7.446;2023-04-06T16:15:43;19.93;;;17.83;;
36185;SDS011;22228;53.222;7.446;2023-04-06T16:18:13;21.20;;;18.93;;
36185;SDS011;22228;53.222;7.446;2023-04-06T16:20:36;21.73;;;18.23;;
36185;SDS011;22228;53.222;7.446;2023-04-06T16:22:58;20.87;;;18.77;;
36185;SDS011;22228;53.222;7.446;2023-04-06T16:25:19;20.30;;;16.80;;
36185;SDS011;22228;53.222;7.446;2023-04-06T16:27:42;22.03;;;17.87;;
36185;SDS011;22228;53.222;7.446;2023-04-06T16:30:04;25.30;;;19.40;;
36185;SDS011;22228;53.222;7.446;2023-04-06T16:32:27;21.47;;;19.17;;
36185;SDS011;22228;53.222;7.446;2023-04-06T16:34:53;22.17;;;19.43;;
36185;SDS011;22228;53.222;7.446;2023-04-06T16:37:17;20.60;;;18.40;;
36185;SDS011;22228;53.222;7.446;2023-04-06T16:40:08;23.80;;;19.07;;
36185;SDS011;22228;53.222;7.446;2023-04-06T16:42:34;21.63;;;18.73;;
36185;SDS011;22228;53.222;7.446;2023-04-06T16:45:01;22.80;;;19.47;;
36185;SDS011;22228;53.222;7.446;2023-04-06T16:47:25;20.43;;;18.27;;
36185;SDS011;22228;53.222;7.446;2023-04-06T16:49:50;22.17;;;18.83;;
36185;SDS011;22228;53.222;7.446;2023-04-06T16:52:21;21.30;;;19.07;;
36185;SDS011;22228;53.222;7.446;2023-04-06T16:54:44;20.17;;;18.07;;
36185;SDS011;22228;53.222;7.446;2023-04-06T16:57:05;23.27;;;19.00;;
36185;SDS011;22228;53.222;7.446;2023-04-06T16:59:26;23.13;;;19.20;;
36185;SDS011;22228;53.222;7.446;2023-04-06T17:01:49;21.43;;;19.17;;
36185;SDS011;22228;53.222;7.446;2023-04-06T17:04:36;27.47;;;22.40;;
36185;SDS011;22228;53.222;7.446;2023-04-06T17:09:52;22.50;;;18.47;;
36185;SDS011;22228;53.222;7.446;2023-04-06T17:12:19;21.30;;;18.47;;
36185;SDS011;22228;53.222;7.446;2023-04-06T17:14:41;21.10;;;18.83;;
36185;SDS011;22228;53.222;7.446;2023-04-06T17:17:11;23.27;;;20.13;;
36185;SDS011;22228;53.222;7.446;2023-04-06T17:19:32;22.87;;;19.80;;
36185;SDS011;22228;53.222;7.446;2023-04-06T17:21:54;22.27;;;18.87;;
36185;SDS011;22228;53.222;7.446;2023-04-06T17:24:17;21.73;;;19.43;;
36185;SDS011;22228;53.222;7.446;2023-04-06T17:26:38;21.33;;;19.03;;
36185;SDS011;22228;53.222;7.446;2023-04-06T17:29:00;22.87;;;20.43;;
36185;SDS011;22228;53.222;7.446;2023-04-06T17:31:46;23.23;;;19.03;;
36185;SDS011;22228;53.222;7.446;2023-04-06T17:34:10;21.00;;;18.30;;
36185;SDS011;22228;53.222;7.446;2023-04-06T17:36:31;19.73;;;17.63;;
36185;SDS011;22228;53.222;7.446;2023-04-06T17:38:53;21.43;;;17.53;;
36185;SDS011;22228;53.222;7.446;2023-04-06T17:41:19;20.23;;;16.77;;
36185;SDS011;22228;53.222;7.446;2023-04-06T17:43:41;20.27;;;17.03;;
36185;SDS011;22228;53.222;7.446;2023-04-06T17:46:02;18.50;;;16.50;;
36185;SDS011;22228;53.222;7.446;2023-04-06T17:48:23;18.90;;;16.77;;
36185;SDS011;22228;53.222;7.446;2023-04-06T17:50:45;22.40;;;17.03;;
36185;SDS011;22228;53.222;7.446;2023-04-06T17:53:06;20.53;;;16.53;;
36185;SDS011;22228;53.222;7.446;2023-04-06T17:55:27;18.23;;;15.97;;
36185;SDS011;22228;53.222;7.446;2023-04-06T17:58:13;18.87;;;16.77;;
36185;SDS011;22228;53.222;7.446;2023-04-06T18:01:04;17.17;;;14.80;;
36185;SDS011;22228;53.222;7.446;2023-04-06T18:03:27;18.37;;;14.27;;
36185;SDS011;22228;53.222;7.446;2023-04-06T18:05:49;19.57;;;14.97;;
36185;SDS011;22228;53.222;7.446;2023-04-06T18:08:10;16.23;;;13.77;;
36185;SDS011;22228;53.222;7.446;2023-04-06T18:10:35;16.03;;;13.97;;
36185;SDS011;22228;53.222;7.446;2023-04-06T18:12:56;17.93;;;14.03;;
36185;SDS011;22228;53.222;7.446;2023-04-06T18:15:24;17.17;;;14.13;;